sensor_id;sensor_type;location;lat;lon;timestamp;pressure;altitude;pressure_sealevel;temperature;humidity
50790;BME280;37287;47.554;7.844;2023-02-02T00:01:32;98960.25;;;4.07;88.02
50790;BME280;37287;47.554;7.844;2023-02-02T00:03:58;98946.53;;;4.08;87.54
50790;BME280;37287;47.554;7.844;2023-02-02T00:06:29;98932.03;;;4.09;88.07
50790;BME280;37287;47.554;7.844;2023-02-02T00:08:57;98925.91;;;4.09;88.41
50790;BME280;37287;47.554;7.844;2023-02-02T00:11:26;98925.41;;;4.07;88.64
50790;BME280;37287;47.554;7.844;2023-02-02T00:14:06;98922.56;;;4.03;89.23
50790;BME280;37287;47.554;7.844;2023-02-02T00:16:36;98930.91;;;4.02;89.22
50790;BME280;37287;47.554;7.844;2023-02-02T00:19:08;98929.31;;;4.01;90.00
50790;BME280;37287;47.554;7.844;2023-02-02T00:21:41;98932.16;;;4.04;89.65
50790;BME280;37287;47.554;7.844;2023-02-02T00:24:09;98939.41;;;4.04;89.58
50790;BME280;37287;47.554;7.844;2023-02-02T00:26:37;98923.34;;;4.04;89.46
50790;BME280;37287;47.554;7.844;2023-02-02T00:29:06;98929.31;;;4.01;89.48
50790;BME280;37287;47.554;7.844;2023-02-02T00:31:33;98933.09;;;4.00;89.58
50790;BME280;37287;47.554;7.844;2023-02-02T00:34:00;98934.69;;;4.01;89.11
50790;BME280;37287;47.554;7.844;2023-02-02T00:36:28;98928.22;;;4.02;89.25
50790;BME280;37287;47.554;7.844;2023-02-02T00:38:54;98943.69;;;4.05;89.23
50790;BME280;37287;47.554;7.844;2023-02-02T00:41:23;98934.84;;;4.04;88.69
50790;BME280;37287;47.554;7.844;2023-02-02T00:43:54;98941.00;;;4.05;89.06
50790;BME280;37287;47.554;7.844;2023-02-02T00:46:42;98929.78;;;4.03;89.02
50790;BME280;37287;47.554;7.844;2023-02-02T00:49:09;98936.75;;;4.04;89.54
50790;BME280;37287;47.554;7.844;2023-02-02T00:51:36;98937.81;;;4.03;89.97
50790;BME280;37287;47.554;7.844;2023-02-02T00:54:05;98937.34;;;4.01;90.32
50790;BME280;37287;47.554;7.844;2023-02-02T00:56:32;98941.94;;;4.00;90.91
50790;BME280;37287;47.554;7.844;2023-02-02T00:59:00;98949.47;;;3.98;91.23
50790;BME280;37287;47.554;7.844;2023-02-02T01:01:33;98948.69;;;3.98;91.26
50790;BME280;37287;47.554;7.844;2023-02-02T01:03:59;98946.78;;;3.98;91.64
50790;BME280;37287;47.554;7.844;2023-02-02T01:06:27;98937.97;;;3.98;91.84
50790;BME280;37287;47.554;7.844;2023-02-02T01:08:58;98941.94;;;4.00;91.71
50790;BME280;37287;47.554;7.844;2023-02-02T01:11:24;98955.63;;;3.99;91.43
50790;BME280;37287;47.554;7.844;2023-02-02T01:13:51;98952.47;;;3.96;91.58
50790;BME280;37287;47.554;7.844;2023-02-02T01:16:21;98957.34;;;3.94;92.29
50790;BME280;37287;47.554;7.844;2023-02-02T01:18:48;98954.66;;;3.94;92.10
50790;BME280;37287;47.554;7.844;2023-02-02T01:21:15;98958.75;;;3.92;92.32
50790;BME280;37287;47.554;7.844;2023-02-02T01:23:42;98953.69;;;3.90;93.14
50790;BME280;37287;47.554;7.844;2023-02-02T01:26:10;98960.91;;;3.90;92.87
50790;BME280;37287;47.554;7.844;2023-02-02T01:28:38;98954.78;;;3.89;93.54
50790;BME280;37287;47.554;7.844;2023-02-02T01:31:13;98962.31;;;3.87;94.38
50790;BME280;37287;47.554;7.844;2023-02-02T01:33:43;98971.16;;;3.88;94.51
50790;BME280;37287;47.554;7.844;2023-02-02T01:36:13;98965.00;;;3.87;94.82
50790;BME280;37287;47.554;7.844;2023-02-02T01:38:40;98971.47;;;3.86;94.83
50790;BME280;37287;47.554;7.844;2023-02-02T01:41:14;98976.81;;;3.86;95.02
50790;BME280;37287;47.554;7.844;2023-02-02T01:46:13;98985.34;;;3.88;95.00
50790;BME280;37287;47.554;7.844;2023-02-02T01:48:48;98979.97;;;3.88;94.93
50790;BME280;37287;47.554;7.844;2023-02-02T01:51:21;98990.69;;;3.88;94.94
50790;BME280;37287;47.554;7.844;2023-02-02T01:53:53;98990.69;;;3.88;95.63
50790;BME280;37287;47.554;7.844;2023-02-02T01:56:29;98990.69;;;3.88;95.95
50790;BME280;37287;47.554;7.844;2023-02-02T01:59:00;98995.44;;;3.91;96.13
50790;BME280;37287;47.554;7.844;2023-02-02T02:01:32;98984.72;;;3.91;96.42
50790;BME280;37287;47.554;7.844;2023-02-02T02:04:00;98986.63;;;3.91;96.23
50790;BME280;37287;47.554;7.844;2023-02-02T02:06:27;98981.56;;;3.89;96.59
50790;BME280;37287;47.554;7.844;2023-02-02T02:09:00;98983.16;;;3.90;97.17
50790;BME280;37287;47.554;7.844;2023-02-02T02:11:30;98980.47;;;3.90;97.35
50790;BME280;37287;47.554;7.844;2023-02-02T02:13:59;98978.88;;;3.89;97.18
50790;BME280;37287;47.554;7.844;2023-02-02T02:20:13;98983.56;;;3.84;98.84
50790;BME280;37287;47.554;7.844;2023-02-02T02:32:03;98979.91;;;3.79;99.72
50790;BME280;37287;47.554;7.844;2023-02-02T02:35:01;98982.91;;;3.78;99.46
50790;BME280;37287;47.554;7.844;2023-02-02T02:43:20;98969.00;;;3.76;100.00
50790;BME280;37287;47.554;7.844;2023-02-02T02:45:49;98975.47;;;3.75;100.00
50790;BME280;37287;47.554;7.844;2023-02-02T02:48:21;98969.31;;;3.74;100.00
50790;BME280;37287;47.554;7.844;2023-02-02T02:50:47;98958.59;;;3.74;100.00
50790;BME280;37287;47.554;7.844;2023-02-02T02:53:20;98963.94;;;3.74;100.00
50790;BME280;37287;47.554;7.844;2023-02-02T03:02:09;98972.78;;;3.75;100.00
50790;BME280;37287;47.554;7.844;2023-02-02T03:04:32;98973.88;;;3.74;100.00
50790;BME280;37287;47.554;7.844;2023-02-02T03:07:09;98965.06;;;3.73;100.00
50790;BME280;37287;47.554;7.844;2023-02-02T03:09:41;98962.38;;;3.73;100.00
50790;BME280;37287;47.554;7.844;2023-02-02T03:12:11;98966.63;;;3.74;100.00
50790;BME280;37287;47.554;7.844;2023-02-02T03:14:38;98967.44;;;3.75;100.00
50790;BME280;37287;47.554;7.844;2023-02-02T03:17:05;98971.97;;;3.74;100.00
50790;BME280;37287;47.554;7.844;2023-02-02T03:19:36;98971.69;;;3.76;100.00
50790;BME280;37287;47.554;7.844;2023-02-02T03:22:02;98970.91;;;3.75;100.00
50790;BME280;37287;47.554;7.844;2023-02-02T03:24:29;98973.28;;;3.77;100.00
50790;BME280;37287;47.554;7.844;2023-02-02T03:26:57;98981.00;;;3.78;100.00
50790;BME280;37287;47.554;7.844;2023-02-02T03:29:24;98985.56;;;3.78;100.00
50790;BME280;37287;47.554;7.844;2023-02-02T03:31:50;98981.50;;;3.81;100.00
50790;BME280;37287;47.554;7.844;2023-02-02T03:34:21;98976.44;;;3.79;100.00
50790;BME280;37287;47.554;7.844;2023-02-02T03:36:48;98983.69;;;3.78;100.00
50790;BME280;37287;47.554;7.844;2023-02-02T03:39:14;98979.13;;;3.79;100.00
50790;BME280;37287;47.554;7.844;2023-02-02T03:41:41;98976.44;;;3.79;100.00
50790;BME280;37287;47.554;7.844;2023-02-02T03:44:10;98988.72;;;3.80;100.00
50790;BME280;37287;47.554;7.844;2023-02-02T03:46:36;98982.59;;;3.79;100.00
50790;BME280;37287;47.554;7.844;2023-02-02T03:49:03;98980.69;;;3.80;100.00
50790;BME280;37287;47.554;7.844;2023-02-02T03:51:30;98966.22;;;3.81;100.00
50790;BME280;37287;47.554;7.844;2023-02-02T03:53:56;98974.75;;;3.83;100.00
50790;BME280;37287;47.554;7.844;2023-02-02T03:56:23;98982.19;;;3.86;100.00
50790;BME280;37287;47.554;7.844;2023-02-02T03:58:50;98979.50;;;3.86;100.00
50790;BME280;37287;47.554;7.844;2023-02-02T04:01:16;98980.28;;;3.87;100.00
50790;BME280;37287;47.554;7.844;2023-02-02T04:03:45;98988.81;;;3.89;100.00
50790;BME280;37287;47.554;7.844;2023-02-02T04:06:11;98990.69;;;3.88;100.00
50790;BME280;37287;47.554;7.844;2023-02-02T04:08:39;98993.88;;;3.90;99.89
50790;BME280;37287;47.554;7.844;2023-02-02T04:11:09;98995.44;;;3.91;99.86
50790;BME280;37287;47.554;7.844;2023-02-02T04:13:36;98994.34;;;3.92;99.83
50790;BME280;37287;47.554;7.844;2023-02-02T04:16:05;98984.72;;;3.91;100.00
50790;BME280;37287;47.554;7.844;2023-02-02T04:18:37;98990.06;;;3.91;99.94
50790;BME280;37287;47.554;7.844;2023-02-02T04:21:04;98979.38;;;3.91;100.00
50790;BME280;37287;47.554;7.844;2023-02-02T04:23:31;98989.28;;;3.91;100.00
50790;BME280;37287;47.554;7.844;2023-02-02T04:26:06;98991.19;;;3.90;100.00
50790;BME280;37287;47.554;7.844;2023-02-02T04:28:33;98996.06;;;3.88;100.00
50790;BME280;37287;47.554;7.844;2023-02-02T04:31:02;98996.84;;;3.89;100.00
50790;BME280;37287;47.554;7.844;2023-02-02T04:33:39;98989.09;;;3.87;100.00
50790;BME280;37287;47.554;7.844;2023-02-02T04:36:06;98991.50;;;3.89;100.00
50790;BME280;37287;47.554;7.844;2023-02-02T04:38:33;98987.53;;;3.86;100.00
50790;BME280;37287;47.554;7.844;2023-02-02T04:41:05;98982.47;;;3.85;100.00
50790;BME280;37287;47.554;7.844;2023-02-02T04:43:33;98969.41;;;3.83;100.00
50790;BME280;37287;47.554;7.844;2023-02-02T04:46:00;98964.81;;;3.84;100.00
50790;BME280;37287;47.554;7.844;2023-02-02T04:48:26;98980.88;;;3.84;100.00
50790;BME280;37287;47.554;7.844;2023-02-02T04:51:01;98974.75;;;3.83;100.00
50790;BME280;37287;47.554;7.844;2023-02-02T04:53:28;98973.16;;;3.82;100.00
50790;BME280;37287;47.554;7.844;2023-02-02T04:55:55;98977.72;;;3.82;100.00
50790;BME280;37287;47.554;7.844;2023-02-02T04:58:23;98970.47;;;3.82;100.00
50790;BME280;37287;47.554;7.844;2023-02-02T05:00:58;98974.25;;;3.81;100.00
50790;BME280;37287;47.554;7.844;2023-02-02T05:03:24;98973.47;;;3.81;100.00
50790;BME280;37287;47.554;7.844;2023-02-02T05:06:00;98984.97;;;3.81;100.00
50790;BME280;37287;47.554;7.844;2023-02-02T05:08:27;98975.63;;;3.78;100.00
50790;BME280;37287;47.554;7.844;2023-02-02T05:10:54;98991.91;;;3.82;100.00
50790;BME280;37287;47.554;7.844;2023-02-02T05:13:20;98984.97;;;3.81;100.00
50790;BME280;37287;47.554;7.844;2023-02-02T05:15:47;98994.59;;;3.82;100.00
50790;BME280;37287;47.554;7.844;2023-02-02T05:18:16;98998.88;;;3.83;100.00
50790;BME280;37287;47.554;7.844;2023-02-02T05:20:43;99005.31;;;3.82;100.00
50790;BME280;37287;47.554;7.844;2023-02-02T05:23:11;99002.63;;;3.82;100.00
50790;BME280;37287;47.554;7.844;2023-02-02T05:25:38;98991.91;;;3.82;100.00
50790;BME280;37287;47.554;7.844;2023-02-02T05:28:04;98996.97;;;3.84;100.00
50790;BME280;37287;47.554;7.844;2023-02-02T05:30:37;98983.88;;;3.82;100.00
50790;BME280;37287;47.554;7.844;2023-02-02T05:33:07;98987.34;;;3.83;100.00
50790;BME280;37287;47.554;7.844;2023-02-02T05:35:36;98982.78;;;3.83;100.00
50790;BME280;37287;47.554;7.844;2023-02-02T05:38:02;98977.44;;;3.83;100.00
50790;BME280;37287;47.554;7.844;2023-02-02T05:40:29;98977.13;;;3.85;100.00
50790;BME280;37287;47.554;7.844;2023-02-02T05:42:59;98976.22;;;3.89;100.00
50790;BME280;37287;47.554;7.844;2023-02-02T05:45:26;98978.59;;;3.91;100.00
50790;BME280;37287;47.554;7.844;2023-02-02T05:47:53;98977.50;;;3.92;100.00
50790;BME280;37287;47.554;7.844;2023-02-02T05:50:21;98982.53;;;3.93;100.00
50790;BME280;37287;47.554;7.844;2023-02-02T05:52:48;98989.50;;;3.94;99.95
50790;BME280;37287;47.554;7.844;2023-02-02T05:55:14;98985.22;;;3.93;99.62
50790;BME280;37287;47.554;7.844;2023-02-02T05:57:43;98989.97;;;3.96;99.37
50790;BME280;37287;47.554;7.844;2023-02-02T06:00:12;98995.03;;;3.98;99.06
50790;BME280;37287;47.554;7.844;2023-02-02T06:02:41;98993.44;;;3.97;99.25
50790;BME280;37287;47.554;7.844;2023-02-02T06:05:10;99002.75;;;4.00;98.80
50790;BME280;37287;47.554;7.844;2023-02-02T06:07:37;99005.94;;;4.02;98.55
50790;BME280;37287;47.554;7.844;2023-02-02T06:10:04;99001.38;;;4.02;98.49
50790;BME280;37287;47.554;7.844;2023-02-02T06:12:32;98995.22;;;4.02;98.13
50790;BME280;37287;47.554;7.844;2023-02-02T06:14:59;99002.66;;;4.05;98.32
50790;BME280;37287;47.554;7.844;2023-02-02T06:17:26;99000.75;;;4.05;97.70
50790;BME280;37287;47.554;7.844;2023-02-02T06:19:52;98996.19;;;4.06;97.95
50790;BME280;37287;47.554;7.844;2023-02-02T06:22:19;99001.25;;;4.07;97.81
50790;BME280;37287;47.554;7.844;2023-02-02T06:24:46;99008.84;;;4.14;97.67
50790;BME280;37287;47.554;7.844;2023-02-02T06:27:16;99010.94;;;4.17;97.16
50790;BME280;37287;47.554;7.844;2023-02-02T06:29:45;99015.19;;;4.18;97.10
50790;BME280;37287;47.554;7.844;2023-02-02T06:32:11;99007.44;;;4.17;96.95
50790;BME280;37287;47.554;7.844;2023-02-02T06:34:40;99009.81;;;4.18;96.80
50790;BME280;37287;47.554;7.844;2023-02-02T06:37:07;99006.06;;;4.19;96.62
50790;BME280;37287;47.554;7.844;2023-02-02T06:39:33;99003.84;;;4.21;96.43
50790;BME280;37287;47.554;7.844;2023-02-02T06:42:02;99011.09;;;4.21;96.71
50790;BME280;37287;47.554;7.844;2023-02-02T06:44:48;99015.69;;;4.20;96.70
50790;BME280;37287;47.554;7.844;2023-02-02T06:47:21;99014.88;;;4.20;97.08
50790;BME280;37287;47.554;7.844;2023-02-02T06:49:48;99018.38;;;4.20;96.63
50790;BME280;37287;47.554;7.844;2023-02-02T06:52:14;99019.75;;;4.18;96.84
50790;BME280;37287;47.554;7.844;2023-02-02T06:54:41;99029.88;;;4.21;96.41
50790;BME280;37287;47.554;7.844;2023-02-02T06:57:07;99023.91;;;4.24;96.06
50790;BME280;37287;47.554;7.844;2023-02-02T06:59:34;99030.06;;;4.24;95.70
50790;BME280;37287;47.554;7.844;2023-02-02T07:02:03;99031.63;;;4.25;96.19
50790;BME280;37287;47.554;7.844;2023-02-02T07:04:30;99037.00;;;4.25;95.96
50790;BME280;37287;47.554;7.844;2023-02-02T07:06:56;99034.50;;;4.29;95.53
50790;BME280;37287;47.554;7.844;2023-02-02T07:09:23;99035.59;;;4.28;94.87
50790;BME280;37287;47.554;7.844;2023-02-02T07:11:50;99030.44;;;4.32;95.14
50790;BME280;37287;47.554;7.844;2023-02-02T07:14:16;99035.78;;;4.32;94.51
50790;BME280;37287;47.554;7.844;2023-02-02T07:16:44;99030.22;;;4.28;94.92
50790;BME280;37287;47.554;7.844;2023-02-02T07:19:11;99025.06;;;4.32;95.02
50790;BME280;37287;47.554;7.844;2023-02-02T07:21:39;99038.47;;;4.32;94.86
50790;BME280;37287;47.554;7.844;2023-02-02T07:24:06;99035.19;;;4.35;94.74
50790;BME280;37287;47.554;7.844;2023-02-02T07:26:34;99035.34;;;4.38;94.47
50790;BME280;37287;47.554;7.844;2023-02-02T07:29:01;99036.16;;;4.39;94.36
50790;BME280;37287;47.554;7.844;2023-02-02T07:31:29;99038.53;;;4.40;93.93
50790;BME280;37287;47.554;7.844;2023-02-02T07:33:59;99037.75;;;4.40;94.39
50790;BME280;37287;47.554;7.844;2023-02-02T07:36:26;99034.75;;;4.41;94.23
50790;BME280;37287;47.554;7.844;2023-02-02T07:38:53;99043.09;;;4.40;94.16
50790;BME280;37287;47.554;7.844;2023-02-02T07:41:20;99051.44;;;4.38;94.55
50790;BME280;37287;47.554;7.844;2023-02-02T07:43:48;99048.28;;;4.36;94.65
50790;BME280;37287;47.554;7.844;2023-02-02T07:46:19;99045.28;;;4.38;94.27
50790;BME280;37287;47.554;7.844;2023-02-02T07:48:46;99044.19;;;4.39;94.32
50790;BME280;37287;47.554;7.844;2023-02-02T07:51:15;99037.25;;;4.38;94.41
50790;BME280;37287;47.554;7.844;2023-02-02T07:53:45;99041.50;;;4.39;94.25
50790;BME280;37287;47.554;7.844;2023-02-02T07:56:20;99038.03;;;4.38;94.05
50790;BME280;37287;47.554;7.844;2023-02-02T07:58:47;99052.53;;;4.37;94.09
50790;BME280;37287;47.554;7.844;2023-02-02T08:01:15;99056.00;;;4.38;94.03
50790;BME280;37287;47.554;7.844;2023-02-02T08:03:43;99058.88;;;4.41;93.83
50790;BME280;37287;47.554;7.844;2023-02-02T08:06:19;99050.22;;;4.44;93.54
50790;BME280;37287;47.554;7.844;2023-02-02T08:08:47;99065.22;;;4.45;93.35
50790;BME280;37287;47.554;7.844;2023-02-02T08:11:18;99061.25;;;4.43;93.85
50790;BME280;37287;47.554;7.844;2023-02-02T08:13:48;99066.13;;;4.41;93.64
50790;BME280;37287;47.554;7.844;2023-02-02T08:16:16;99083.81;;;4.42;93.95
50790;BME280;37287;47.554;7.844;2023-02-02T08:18:44;99080.34;;;4.41;93.96
50790;BME280;37287;47.554;7.844;2023-02-02T08:21:11;99076.84;;;4.41;94.12
50790;BME280;37287;47.554;7.844;2023-02-02T08:23:40;99078.44;;;4.42;94.26
50790;BME280;37287;47.554;7.844;2023-02-02T08:26:10;99072.28;;;4.41;94.41
50790;BME280;37287;47.554;7.844;2023-02-02T08:28:38;99076.84;;;4.41;94.59
50790;BME280;37287;47.554;7.844;2023-02-02T08:31:09;99079.22;;;4.42;95.13
50790;BME280;37287;47.554;7.844;2023-02-02T08:33:38;99076.22;;;4.44;95.25
50790;BME280;37287;47.554;7.844;2023-02-02T08:36:12;99068.69;;;4.46;95.39
50790;BME280;37287;47.554;7.844;2023-02-02T08:38:39;99072.16;;;4.46;95.67
50790;BME280;37287;47.554;7.844;2023-02-02T08:41:10;99065.69;;;4.47;94.94
50790;BME280;37287;47.554;7.844;2023-02-02T08:43:39;99072.34;;;4.50;96.08
50790;BME280;37287;47.554;7.844;2023-02-02T08:46:07;99070.88;;;4.44;98.87
50790;BME280;37287;47.554;7.844;2023-02-02T08:48:37;99076.06;;;4.40;99.98
50790;BME280;37287;47.554;7.844;2023-02-02T08:51:04;99081.84;;;4.34;100.00
50790;BME280;37287;47.554;7.844;2023-02-02T08:53:32;99080.88;;;4.29;100.00
50790;BME280;37287;47.554;7.844;2023-02-02T08:56:05;99086.84;;;4.26;100.00
50790;BME280;37287;47.554;7.844;2023-02-02T08:58:34;99084.78;;;4.23;100.00
50790;BME280;37287;47.554;7.844;2023-02-02T09:01:05;99086.66;;;4.23;100.00
50790;BME280;37287;47.554;7.844;2023-02-02T09:03:33;99085.06;;;4.22;100.00
50790;BME280;37287;47.554;7.844;2023-02-02T09:06:06;99087.25;;;4.20;100.00
50790;BME280;37287;47.554;7.844;2023-02-02T09:08:35;99088.84;;;4.21;100.00
50790;BME280;37287;47.554;7.844;2023-02-02T09:11:13;99106.00;;;4.20;100.00
50790;BME280;37287;47.554;7.844;2023-02-02T09:13:47;99104.16;;;4.20;100.00
50790;BME280;37287;47.554;7.844;2023-02-02T09:16:19;99114.06;;;4.20;100.00
50790;BME280;37287;47.554;7.844;2023-02-02T09:18:46;99112.97;;;4.21;100.00
50790;BME280;37287;47.554;7.844;2023-02-02T09:21:17;99109.19;;;4.22;100.00
50790;BME280;37287;47.554;7.844;2023-02-02T09:23:45;99112.06;;;4.25;100.00
50790;BME280;37287;47.554;7.844;2023-02-02T09:26:27;99111.47;;;4.28;100.00
50790;BME280;37287;47.554;7.844;2023-02-02T09:29:06;99116.22;;;4.32;100.00
50790;BME280;37287;47.554;7.844;2023-02-02T09:31:36;99119.38;;;4.34;100.00
50790;BME280;37287;47.554;7.844;2023-02-02T09:34:05;99117.19;;;4.36;100.00
50790;BME280;37287;47.554;7.844;2023-02-02T09:36:34;99119.75;;;4.41;100.00
50790;BME280;37287;47.554;7.844;2023-02-02T09:39:01;99116.19;;;4.45;100.00
50790;BME280;37287;47.554;7.844;2023-02-02T09:49:53;99126.25;;;4.62;100.00
50790;BME280;37287;47.554;7.844;2023-02-02T09:58:13;99137.50;;;4.73;100.00
50790;BME280;37287;47.554;7.844;2023-02-02T10:00:50;99145.75;;;4.77;100.00
50790;BME280;37287;47.554;7.844;2023-02-02T10:03:36;99152.56;;;4.83;99.81
50790;BME280;37287;47.554;7.844;2023-02-02T10:06:27;99148.16;;;4.87;99.47
50790;BME280;37287;47.554;7.844;2023-02-02T10:09:02;99155.50;;;4.95;99.06
50790;BME280;37287;47.554;7.844;2023-02-02T10:11:33;99152.97;;;4.99;98.79
50790;BME280;37287;47.554;7.844;2023-02-02T10:14:06;99168.47;;;5.02;98.33
50790;BME280;37287;47.554;7.844;2023-02-02T10:16:36;99176.69;;;5.06;98.24
50790;BME280;37287;47.554;7.844;2023-02-02T10:19:08;99171.34;;;5.06;97.52
50790;BME280;37287;47.554;7.844;2023-02-02T10:24:30;99173.72;;;5.07;97.07
50790;BME280;37287;47.554;7.844;2023-02-02T10:26:59;99177.22;;;5.08;96.90
50790;BME280;37287;47.554;7.844;2023-02-02T10:32:30;99179.81;;;4.99;97.09
50790;BME280;37287;47.554;7.844;2023-02-02T10:35:26;99183.31;;;4.99;97.45
50790;BME280;37287;47.554;7.844;2023-02-02T10:38:11;99176.03;;;5.00;97.31
50790;BME280;37287;47.554;7.844;2023-02-02T10:48:45;99179.38;;;5.06;98.38
50790;BME280;37287;47.554;7.844;2023-02-02T10:51:28;99188.53;;;5.05;98.32
50790;BME280;37287;47.554;7.844;2023-02-02T10:53:59;99182.69;;;5.03;98.30
50790;BME280;37287;47.554;7.844;2023-02-02T10:56:36;99181.59;;;5.04;98.09
50790;BME280;37287;47.554;7.844;2023-02-02T10:59:12;99186.34;;;5.07;98.44
50790;BME280;37287;47.554;7.844;2023-02-02T11:01:43;99178.28;;;5.07;98.65
50790;BME280;37287;47.554;7.844;2023-02-02T11:04:12;99187.94;;;5.08;98.64
50790;BME280;37287;47.554;7.844;2023-02-02T11:07:00;99184.44;;;5.07;98.71
50790;BME280;37287;47.554;7.844;2023-02-02T11:09:35;99186.03;;;5.08;99.01
50790;BME280;37287;47.554;7.844;2023-02-02T11:12:30;99178.66;;;5.14;99.40
50790;BME280;37287;47.554;7.844;2023-02-02T11:17:31;99163.41;;;5.23;99.05
50790;BME280;37287;47.554;7.844;2023-02-02T11:19:58;99160.41;;;5.25;98.06
50790;BME280;37287;47.554;7.844;2023-02-02T11:22:36;99156.66;;;5.34;97.41
50790;BME280;37287;47.554;7.844;2023-02-02T11:25:06;99154.00;;;5.43;97.03
50790;BME280;37287;47.554;7.844;2023-02-02T11:27:40;99160.50;;;5.51;96.52
50790;BME280;37287;47.554;7.844;2023-02-02T11:30:23;99152.78;;;5.58;96.19
50790;BME280;37287;47.554;7.844;2023-02-02T11:32:53;99152.53;;;5.68;94.88
50790;BME280;37287;47.554;7.844;2023-02-02T11:35:25;99149.53;;;5.79;94.20
50790;BME280;37287;47.554;7.844;2023-02-02T11:37:54;99144.84;;;5.93;92.89
50790;BME280;37287;47.554;7.844;2023-02-02T11:40:43;99149.13;;;5.94;91.85
50790;BME280;37287;47.554;7.844;2023-02-02T11:43:18;99152.16;;;6.01;91.38
50790;BME280;37287;47.554;7.844;2023-02-02T11:45:58;99152.34;;;6.14;91.35
50790;BME280;37287;47.554;7.844;2023-02-02T11:48:38;99149.50;;;6.19;89.74
50790;BME280;37287;47.554;7.844;2023-02-02T11:51:05;99146.03;;;6.27;89.45
50790;BME280;37287;47.554;7.844;2023-02-02T11:53:43;99133.38;;;6.36;89.00
50790;BME280;37287;47.554;7.844;2023-02-02T11:56:23;99132.25;;;6.37;88.77
50790;BME280;37287;47.554;7.844;2023-02-02T11:58:54;99122.13;;;6.34;88.53
50790;BME280;37287;47.554;7.844;2023-02-02T12:01:23;99118.66;;;6.25;90.40
50790;BME280;37287;47.554;7.844;2023-02-02T12:03:52;99136.38;;;6.44;90.14
50790;BME280;37287;47.554;7.844;2023-02-02T12:06:21;99127.03;;;6.50;89.65
50790;BME280;37287;47.554;7.844;2023-02-02T12:08:54;99130.03;;;6.57;89.08
50790;BME280;37287;47.554;7.844;2023-02-02T12:14:10;99108.19;;;6.15;94.52
50790;BME280;37287;47.554;7.844;2023-02-02T12:16:54;99120.06;;;6.05;97.13
50790;BME280;37287;47.554;7.844;2023-02-02T12:19:34;99112.97;;;6.27;95.30
50790;BME280;37287;47.554;7.844;2023-02-02T12:24:52;99110.91;;;6.50;96.54
50790;BME280;37287;47.554;7.844;2023-02-02T12:38:35;99121.81;;;6.27;96.16
50790;BME280;37287;47.554;7.844;2023-02-02T12:43:43;99114.84;;;6.26;96.88
50790;BME280;37287;47.554;7.844;2023-02-02T12:46:33;99122.28;;;6.20;97.50
50790;BME280;37287;47.554;7.844;2023-02-02T12:52:47;99129.69;;;5.97;97.13
50790;BME280;37287;47.554;7.844;2023-02-02T12:55:27;99138.38;;;5.94;98.32
50790;BME280;37287;47.554;7.844;2023-02-02T12:58:31;99126.66;;;5.90;98.00
50790;BME280;37287;47.554;7.844;2023-02-02T13:01:16;99122.69;;;5.88;98.51
50790;BME280;37287;47.554;7.844;2023-02-02T13:12:23;99128.53;;;5.32;100.00
50790;BME280;37287;47.554;7.844;2023-02-02T13:14:58;99134.28;;;5.16;100.00
50790;BME280;37287;47.554;7.844;2023-02-02T13:17:34;99125.22;;;5.04;100.00
50790;BME280;37287;47.554;7.844;2023-02-02T13:20:33;99134.38;;;5.03;100.00
50790;BME280;37287;47.554;7.844;2023-02-02T13:22:59;99122.50;;;4.95;100.00
50790;BME280;37287;47.554;7.844;2023-02-02T13:25:34;99117.13;;;4.95;100.00
50790;BME280;37287;47.554;7.844;2023-02-02T13:28:04;99122.34;;;5.00;100.00
50790;BME280;37287;47.554;7.844;2023-02-02T13:30:42;99123.63;;;5.03;100.00
50790;BME280;37287;47.554;7.844;2023-02-02T13:33:20;99132.97;;;5.05;100.00
50790;BME280;37287;47.554;7.844;2023-02-02T13:35:59;99131.25;;;5.09;100.00
50790;BME280;37287;47.554;7.844;2023-02-02T13:38:28;99135.22;;;5.12;100.00
50790;BME280;37287;47.554;7.844;2023-02-02T13:41:01;99122.59;;;5.12;100.00
50790;BME280;37287;47.554;7.844;2023-02-02T13:43:50;99131.09;;;5.14;100.00
50790;BME280;37287;47.554;7.844;2023-02-02T13:49:09;99125.31;;;5.21;100.00
50790;BME280;37287;47.554;7.844;2023-02-02T13:52:24;99126.28;;;5.25;98.63
50790;BME280;37287;47.554;7.844;2023-02-02T13:59:46;99119.84;;;5.35;97.14
50790;BME280;37287;47.554;7.844;2023-02-02T14:02:21;99126.97;;;5.40;96.88
50790;BME280;37287;47.554;7.844;2023-02-02T14:04:55;99124.63;;;5.47;95.76
50790;BME280;37287;47.554;7.844;2023-02-02T14:07:44;99127.19;;;5.52;94.17
50790;BME280;37287;47.554;7.844;2023-02-02T14:10:30;99128.59;;;5.58;94.38
50790;BME280;37287;47.554;7.844;2023-02-02T14:15:59;99132.88;;;5.59;93.05
50790;BME280;37287;47.554;7.844;2023-02-02T14:24:03;99139.09;;;5.68;91.42
50790;BME280;37287;47.554;7.844;2023-02-02T14:26:48;99135.28;;;5.69;89.95
50790;BME280;37287;47.554;7.844;2023-02-02T14:32:00;99136.25;;;5.74;90.34
50790;BME280;37287;47.554;7.844;2023-02-02T14:34:40;99128.84;;;5.79;89.83
50790;BME280;37287;47.554;7.844;2023-02-02T14:37:16;99136.44;;;5.86;90.30
50790;BME280;37287;47.554;7.844;2023-02-02T14:40:20;99130.94;;;5.91;90.54
50790;BME280;37287;47.554;7.844;2023-02-02T14:43:10;99142.28;;;5.88;89.50
50790;BME280;37287;47.554;7.844;2023-02-02T14:49:05;99165.03;;;5.82;89.08
50790;BME280;37287;47.554;7.844;2023-02-02T14:51:47;99165.69;;;5.79;88.68
50790;BME280;37287;47.554;7.844;2023-02-02T14:54:36;99164.56;;;5.80;90.21
50790;BME280;37287;47.554;7.844;2023-02-02T14:59:45;99178.16;;;5.75;88.40
50790;BME280;37287;47.554;7.844;2023-02-02T15:04:39;99186.84;;;5.72;88.83
50790;BME280;37287;47.554;7.844;2023-02-02T15:09:56;99199.63;;;5.66;89.52
50790;BME280;37287;47.554;7.844;2023-02-02T15:12:44;99193.44;;;5.65;88.93
50790;BME280;37287;47.554;7.844;2023-02-02T15:15:24;99199.94;;;5.64;88.41
50790;BME280;37287;47.554;7.844;2023-02-02T15:18:11;99195.03;;;5.66;88.39
50790;BME280;37287;47.554;7.844;2023-02-02T15:20:47;99192.84;;;5.68;89.48
50790;BME280;37287;47.554;7.844;2023-02-02T15:23:39;99195.34;;;5.65;89.21
50790;BME280;37287;47.554;7.844;2023-02-02T15:26:20;99206.41;;;5.63;88.06
50790;BME280;37287;47.554;7.844;2023-02-02T15:28:51;99203.72;;;5.63;87.64
50790;BME280;37287;47.554;7.844;2023-02-02T15:31:28;99205.63;;;5.63;87.63